sensor_id;sensor_type;location;lat;lon;timestamp;P1;durP1;ratioP1;P2;durP2;ratioP2
16031;SDS011;8120;48.308;8.914;2023-08-30T00:02:19;22.93;;;15.90;;
16031;SDS011;8120;48.308;8.914;2023-08-30T00:04:47;16.00;;;11.97;;
16031;SDS011;8120;48.308;8.914;2023-08-30T00:07:16;17.07;;;12.80;;
16031;SDS011;8120;48.308;8.914;2023-08-30T00:09:44;16.07;;;12.20;;
16031;SDS011;8120;48.308;8.914;2023-08-30T00:12:12;16.10;;;11.80;;
16031;SDS011;8120;48.308;8.914;2023-08-30T00:14:40;14.57;;;11.47;;
16031;SDS011;8120;48.308;8.914;2023-08-30T00:17:08;14.50;;;10.40;;
16031;SDS011;8120;48.308;8.914;2023-08-30T00:19:36;12.33;;;9.73;;
16031;SDS011;8120;48.308;8.914;2023-08-30T00:22:05;12.97;;;9.33;;
16031;SDS011;8120;48.308;8.914;2023-08-30T00:24:35;11.43;;;8.57;;
16031;SDS011;8120;48.308;8.914;2023-08-30T00:27:03;12.03;;;9.03;;
16031;SDS011;8120;48.308;8.914;2023-08-30T00:29:31;11.50;;;8.77;;
16031;SDS011;8120;48.308;8.914;2023-08-30T00:31:59;11.30;;;9.13;;
16031;SDS011;8120;48.308;8.914;2023-08-30T00:34:27;13.47;;;9.13;;
16031;SDS011;8120;48.308;8.914;2023-08-30T00:36:55;10.90;;;8.60;;
16031;SDS011;8120;48.308;8.914;2023-08-30T00:39:23;10.13;;;8.90;;
16031;SDS011;8120;48.308;8.914;2023-08-30T00:41:52;10.80;;;8.80;;
16031;SDS011;8120;48.308;8.914;2023-08-30T00:44:20;12.87;;;9.73;;
16031;SDS011;8120;48.308;8.914;2023-08-30T00:46:48;10.20;;;8.23;;
16031;SDS011;8120;48.308;8.914;2023-08-30T00:49:16;10.43;;;8.87;;
16031;SDS011;8120;48.308;8.914;2023-08-30T00:51:44;12.37;;;8.90;;
16031;SDS011;8120;48.308;8.914;2023-08-30T00:54:12;11.87;;;9.47;;
16031;SDS011;8120;48.308;8.914;2023-08-30T00:56:40;10.53;;;8.50;;
16031;SDS011;8120;48.308;8.914;2023-08-30T00:59:09;9.83;;;7.93;;
16031;SDS011;8120;48.308;8.914;2023-08-30T01:01:37;9.70;;;7.23;;
16031;SDS011;8120;48.308;8.914;2023-08-30T01:04:06;10.17;;;7.97;;
16031;SDS011;8120;48.308;8.914;2023-08-30T01:06:34;10.03;;;8.17;;
16031;SDS011;8120;48.308;8.914;2023-08-30T01:09:02;9.80;;;8.17;;
16031;SDS011;8120;48.308;8.914;2023-08-30T01:11:32;9.67;;;7.43;;
16031;SDS011;8120;48.308;8.914;2023-08-30T01:14:05;9.17;;;7.73;;
16031;SDS011;8120;48.308;8.914;2023-08-30T01:16:37;10.63;;;8.17;;
16031;SDS011;8120;48.308;8.914;2023-08-30T01:19:10;10.57;;;8.43;;
16031;SDS011;8120;48.308;8.914;2023-08-30T01:21:58;12.87;;;8.00;;
16031;SDS011;8120;48.308;8.914;2023-08-30T01:24:36;10.90;;;8.27;;
16031;SDS011;8120;48.308;8.914;2023-08-30T01:27:10;10.93;;;8.20;;
16031;SDS011;8120;48.308;8.914;2023-08-30T01:29:39;10.33;;;8.07;;
16031;SDS011;8120;48.308;8.914;2023-08-30T01:32:10;10.20;;;7.93;;
16031;SDS011;8120;48.308;8.914;2023-08-30T01:34:39;11.63;;;7.17;;
16031;SDS011;8120;48.308;8.914;2023-08-30T01:37:08;9.70;;;6.60;;
16031;SDS011;8120;48.308;8.914;2023-08-30T01:39:37;10.93;;;8.13;;
16031;SDS011;8120;48.308;8.914;2023-08-30T01:42:07;10.03;;;8.43;;
16031;SDS011;8120;48.308;8.914;2023-08-30T01:44:36;12.27;;;8.07;;
16031;SDS011;8120;48.308;8.914;2023-08-30T01:47:05;12.77;;;8.10;;
16031;SDS011;8120;48.308;8.914;2023-08-30T01:49:34;15.53;;;9.20;;
16031;SDS011;8120;48.308;8.914;2023-08-30T01:52:04;12.20;;;9.07;;
16031;SDS011;8120;48.308;8.914;2023-08-30T01:54:32;13.37;;;8.67;;
16031;SDS011;8120;48.308;8.914;2023-08-30T01:57:01;11.00;;;8.60;;
16031;SDS011;8120;48.308;8.914;2023-08-30T01:59:29;11.87;;;9.37;;
16031;SDS011;8120;48.308;8.914;2023-08-30T02:01:58;11.00;;;8.10;;
16031;SDS011;8120;48.308;8.914;2023-08-30T02:04:26;10.93;;;8.50;;
16031;SDS011;8120;48.308;8.914;2023-08-30T02:06:54;11.07;;;8.93;;
16031;SDS011;8120;48.308;8.914;2023-08-30T02:09:28;10.67;;;8.03;;
16031;SDS011;8120;48.308;8.914;2023-08-30T02:12:03;10.67;;;8.83;;
16031;SDS011;8120;48.308;8.914;2023-08-30T02:14:34;12.00;;;8.93;;
16031;SDS011;8120;48.308;8.914;2023-08-30T02:17:05;22.97;;;8.33;;
16031;SDS011;8120;48.308;8.914;2023-08-30T02:19:33;13.97;;;7.87;;
16031;SDS011;8120;48.308;8.914;2023-08-30T02:22:02;15.63;;;6.90;;
16031;SDS011;8120;48.308;8.914;2023-08-30T02:24:30;11.97;;;7.93;;
16031;SDS011;8120;48.308;8.914;2023-08-30T02:26:58;10.07;;;7.63;;
16031;SDS011;8120;48.308;8.914;2023-08-30T02:29:26;9.23;;;6.77;;
16031;SDS011;8120;48.308;8.914;2023-08-30T02:31:54;9.77;;;6.17;;
16031;SDS011;8120;48.308;8.914;2023-08-30T02:34:23;8.30;;;6.20;;
16031;SDS011;8120;48.308;8.914;2023-08-30T02:36:51;8.17;;;5.80;;
16031;SDS011;8120;48.308;8.914;2023-08-30T02:39:19;8.43;;;6.23;;
16031;SDS011;8120;48.308;8.914;2023-08-30T02:41:47;7.43;;;5.80;;
16031;SDS011;8120;48.308;8.914;2023-08-30T02:44:15;8.40;;;6.80;;
16031;SDS011;8120;48.308;8.914;2023-08-30T02:46:43;8.07;;;6.67;;
16031;SDS011;8120;48.308;8.914;2023-08-30T02:49:10;9.50;;;7.73;;
16031;SDS011;8120;48.308;8.914;2023-08-30T02:51:40;10.67;;;8.20;;
16031;SDS011;8120;48.308;8.914;2023-08-30T02:54:07;8.60;;;7.07;;
16031;SDS011;8120;48.308;8.914;2023-08-30T02:56:35;10.70;;;7.27;;
16031;SDS011;8120;48.308;8.914;2023-08-30T02:59:03;10.27;;;7.77;;
16031;SDS011;8120;48.308;8.914;2023-08-30T03:01:31;9.90;;;7.27;;
16031;SDS011;8120;48.308;8.914;2023-08-30T03:03:59;8.67;;;6.53;;
16031;SDS011;8120;48.308;8.914;2023-08-30T03:06:27;7.37;;;5.30;;
16031;SDS011;8120;48.308;8.914;2023-08-30T03:08:56;6.67;;;5.03;;
16031;SDS011;8120;48.308;8.914;2023-08-30T03:11:24;7.47;;;5.63;;
16031;SDS011;8120;48.308;8.914;2023-08-30T03:13:53;7.50;;;4.60;;
16031;SDS011;8120;48.308;8.914;2023-08-30T03:16:21;7.00;;;5.40;;
16031;SDS011;8120;48.308;8.914;2023-08-30T03:18:49;9.03;;;5.53;;
16031;SDS011;8120;48.308;8.914;2023-08-30T03:21:17;6.83;;;5.20;;
16031;SDS011;8120;48.308;8.914;2023-08-30T03:23:45;5.83;;;4.53;;
16031;SDS011;8120;48.308;8.914;2023-08-30T03:26:14;6.10;;;4.43;;
16031;SDS011;8120;48.308;8.914;2023-08-30T03:28:43;6.33;;;4.50;;
16031;SDS011;8120;48.308;8.914;2023-08-30T03:31:12;5.13;;;4.33;;
16031;SDS011;8120;48.308;8.914;2023-08-30T03:33:41;7.20;;;4.27;;
16031;SDS011;8120;48.308;8.914;2023-08-30T03:36:11;6.93;;;4.40;;
16031;SDS011;8120;48.308;8.914;2023-08-30T03:38:41;7.00;;;4.73;;
16031;SDS011;8120;48.308;8.914;2023-08-30T03:41:10;7.50;;;4.70;;
16031;SDS011;8120;48.308;8.914;2023-08-30T03:43:39;5.60;;;4.40;;
16031;SDS011;8120;48.308;8.914;2023-08-30T03:46:07;7.17;;;5.07;;
16031;SDS011;8120;48.308;8.914;2023-08-30T03:48:38;7.37;;;5.37;;
16031;SDS011;8120;48.308;8.914;2023-08-30T03:51:06;7.73;;;5.47;;
16031;SDS011;8120;48.308;8.914;2023-08-30T03:53:34;8.47;;;6.00;;
16031;SDS011;8120;48.308;8.914;2023-08-30T03:56:02;7.27;;;5.33;;
16031;SDS011;8120;48.308;8.914;2023-08-30T03:58:31;8.07;;;6.10;;
16031;SDS011;8120;48.308;8.914;2023-08-30T04:01:00;7.57;;;5.83;;
16031;SDS011;8120;48.308;8.914;2023-08-30T04:03:28;8.23;;;6.33;;
16031;SDS011;8120;48.308;8.914;2023-08-30T04:05:56;9.67;;;7.27;;
16031;SDS011;8120;48.308;8.914;2023-08-30T04:08:24;9.33;;;6.73;;
16031;SDS011;8120;48.308;8.914;2023-08-30T04:10:53;11.50;;;7.70;;
16031;SDS011;8120;48.308;8.914;2023-08-30T04:13:21;10.87;;;8.27;;
16031;SDS011;8120;48.308;8.914;2023-08-30T04:18:26;9.50;;;7.40;;
16031;SDS011;8120;48.308;8.914;2023-08-30T04:20:53;9.53;;;7.10;;
16031;SDS011;8120;48.308;8.914;2023-08-30T04:23:21;11.47;;;7.87;;
16031;SDS011;8120;48.308;8.914;2023-08-30T04:25:49;9.87;;;7.20;;
16031;SDS011;8120;48.308;8.914;2023-08-30T04:28:17;8.57;;;6.40;;
16031;SDS011;8120;48.308;8.914;2023-08-30T04:30:45;10.80;;;7.87;;
16031;SDS011;8120;48.308;8.914;2023-08-30T04:33:13;9.93;;;7.57;;
16031;SDS011;8120;48.308;8.914;2023-08-30T04:35:42;10.37;;;7.83;;
16031;SDS011;8120;48.308;8.914;2023-08-30T04:38:10;10.47;;;7.83;;
16031;SDS011;8120;48.308;8.914;2023-08-30T04:40:38;11.07;;;7.40;;
16031;SDS011;8120;48.308;8.914;2023-08-30T04:43:06;10.53;;;7.30;;
16031;SDS011;8120;48.308;8.914;2023-08-30T04:45:34;10.30;;;7.43;;
16031;SDS011;8120;48.308;8.914;2023-08-30T04:48:02;9.27;;;6.43;;
16031;SDS011;8120;48.308;8.914;2023-08-30T04:50:31;9.50;;;6.80;;
16031;SDS011;8120;48.308;8.914;2023-08-30T04:53:00;8.37;;;6.53;;
16031;SDS011;8120;48.308;8.914;2023-08-30T04:55:28;7.97;;;5.80;;
16031;SDS011;8120;48.308;8.914;2023-08-30T04:57:56;8.40;;;5.90;;
16031;SDS011;8120;48.308;8.914;2023-08-30T05:00:24;8.03;;;5.87;;
16031;SDS011;8120;48.308;8.914;2023-08-30T05:02:52;9.33;;;6.87;;
16031;SDS011;8120;48.308;8.914;2023-08-30T05:05:20;9.07;;;6.80;;
16031;SDS011;8120;48.308;8.914;2023-08-30T05:07:48;9.10;;;7.23;;
16031;SDS011;8120;48.308;8.914;2023-08-30T05:10:18;11.97;;;8.17;;
16031;SDS011;8120;48.308;8.914;2023-08-30T05:12:45;8.90;;;7.47;;
16031;SDS011;8120;48.308;8.914;2023-08-30T05:15:18;12.23;;;7.77;;
16031;SDS011;8120;48.308;8.914;2023-08-30T05:17:46;11.07;;;8.33;;
16031;SDS011;8120;48.308;8.914;2023-08-30T05:20:14;8.57;;;6.70;;
16031;SDS011;8120;48.308;8.914;2023-08-30T05:22:42;9.30;;;6.60;;
16031;SDS011;8120;48.308;8.914;2023-08-30T05:25:10;10.33;;;7.67;;
16031;SDS011;8120;48.308;8.914;2023-08-30T05:27:39;10.57;;;7.17;;
16031;SDS011;8120;48.308;8.914;2023-08-30T05:30:07;9.50;;;7.63;;
16031;SDS011;8120;48.308;8.914;2023-08-30T05:32:36;11.07;;;7.30;;
16031;SDS011;8120;48.308;8.914;2023-08-30T05:35:04;9.43;;;7.83;;
16031;SDS011;8120;48.308;8.914;2023-08-30T05:37:32;11.60;;;8.00;;
16031;SDS011;8120;48.308;8.914;2023-08-30T05:40:00;11.07;;;8.37;;
16031;SDS011;8120;48.308;8.914;2023-08-30T05:42:29;11.20;;;9.03;;
16031;SDS011;8120;48.308;8.914;2023-08-30T05:44:58;11.67;;;8.47;;
16031;SDS011;8120;48.308;8.914;2023-08-30T05:47:26;11.47;;;8.93;;
16031;SDS011;8120;48.308;8.914;2023-08-30T05:49:54;9.77;;;8.00;;
16031;SDS011;8120;48.308;8.914;2023-08-30T05:52:22;9.97;;;8.30;;
16031;SDS011;8120;48.308;8.914;2023-08-30T05:54:51;12.43;;;9.00;;
16031;SDS011;8120;48.308;8.914;2023-08-30T05:57:19;10.00;;;8.37;;
16031;SDS011;8120;48.308;8.914;2023-08-30T05:59:48;13.50;;;8.93;;
16031;SDS011;8120;48.308;8.914;2023-08-30T06:02:16;8.60;;;7.20;;
16031;SDS011;8120;48.308;8.914;2023-08-30T06:04:44;10.43;;;7.67;;
16031;SDS011;8120;48.308;8.914;2023-08-30T06:07:12;10.33;;;7.93;;
16031;SDS011;8120;48.308;8.914;2023-08-30T06:09:40;9.67;;;7.23;;
16031;SDS011;8120;48.308;8.914;2023-08-30T06:12:08;7.63;;;5.67;;
16031;SDS011;8120;48.308;8.914;2023-08-30T06:14:36;7.90;;;6.30;;
16031;SDS011;8120;48.308;8.914;2023-08-30T06:17:04;8.83;;;5.93;;
16031;SDS011;8120;48.308;8.914;2023-08-30T06:19:33;7.53;;;5.77;;
16031;SDS011;8120;48.308;8.914;2023-08-30T06:22:01;7.20;;;5.50;;
16031;SDS011;8120;48.308;8.914;2023-08-30T06:24:29;9.23;;;5.90;;
16031;SDS011;8120;48.308;8.914;2023-08-30T06:26:57;9.13;;;6.03;;
16031;SDS011;8120;48.308;8.914;2023-08-30T06:29:26;7.83;;;5.77;;
16031;SDS011;8120;48.308;8.914;2023-08-30T06:31:54;8.10;;;5.63;;
16031;SDS011;8120;48.308;8.914;2023-08-30T06:34:22;7.60;;;5.50;;
16031;SDS011;8120;48.308;8.914;2023-08-30T06:36:51;8.27;;;6.13;;
16031;SDS011;8120;48.308;8.914;2023-08-30T06:39:19;8.37;;;6.50;;
16031;SDS011;8120;48.308;8.914;2023-08-30T06:41:47;7.80;;;5.87;;
16031;SDS011;8120;48.308;8.914;2023-08-30T06:44:14;8.77;;;6.20;;
16031;SDS011;8120;48.308;8.914;2023-08-30T06:46:43;7.13;;;4.90;;
16031;SDS011;8120;48.308;8.914;2023-08-30T06:49:11;9.17;;;6.37;;
16031;SDS011;8120;48.308;8.914;2023-08-30T06:51:38;8.23;;;6.10;;
16031;SDS011;8120;48.308;8.914;2023-08-30T06:54:08;8.10;;;5.80;;
16031;SDS011;8120;48.308;8.914;2023-08-30T06:56:36;7.80;;;6.13;;
16031;SDS011;8120;48.308;8.914;2023-08-30T06:59:03;7.87;;;5.23;;
16031;SDS011;8120;48.308;8.914;2023-08-30T07:01:31;9.63;;;6.53;;
16031;SDS011;8120;48.308;8.914;2023-08-30T07:04:02;6.37;;;5.13;;
16031;SDS011;8120;48.308;8.914;2023-08-30T07:06:30;8.13;;;5.63;;
16031;SDS011;8120;48.308;8.914;2023-08-30T07:08:58;6.30;;;4.80;;
16031;SDS011;8120;48.308;8.914;2023-08-30T07:11:27;5.67;;;4.50;;
16031;SDS011;8120;48.308;8.914;2023-08-30T07:14:00;6.60;;;5.00;;
16031;SDS011;8120;48.308;8.914;2023-08-30T07:16:28;6.03;;;4.13;;
16031;SDS011;8120;48.308;8.914;2023-08-30T07:18:57;5.13;;;3.93;;
16031;SDS011;8120;48.308;8.914;2023-08-30T07:21:25;5.73;;;4.47;;
16031;SDS011;8120;48.308;8.914;2023-08-30T07:23:53;5.60;;;3.70;;
16031;SDS011;8120;48.308;8.914;2023-08-30T07:26:21;4.70;;;3.50;;
16031;SDS011;8120;48.308;8.914;2023-08-30T07:28:50;4.20;;;3.20;;
16031;SDS011;8120;48.308;8.914;2023-08-30T07:31:18;4.93;;;3.67;;
16031;SDS011;8120;48.308;8.914;2023-08-30T07:33:48;5.13;;;2.93;;
16031;SDS011;8120;48.308;8.914;2023-08-30T07:36:15;5.60;;;3.27;;
16031;SDS011;8120;48.308;8.914;2023-08-30T07:38:44;5.30;;;3.20;;
16031;SDS011;8120;48.308;8.914;2023-08-30T07:41:11;4.67;;;3.10;;
16031;SDS011;8120;48.308;8.914;2023-08-30T07:43:40;5.20;;;3.97;;
16031;SDS011;8120;48.308;8.914;2023-08-30T07:46:09;5.77;;;4.57;;
16031;SDS011;8120;48.308;8.914;2023-08-30T07:48:37;6.87;;;4.87;;
16031;SDS011;8120;48.308;8.914;2023-08-30T07:51:05;6.27;;;4.70;;
16031;SDS011;8120;48.308;8.914;2023-08-30T07:53:32;6.93;;;4.23;;
16031;SDS011;8120;48.308;8.914;2023-08-30T07:56:00;7.00;;;4.83;;
16031;SDS011;8120;48.308;8.914;2023-08-30T07:58:29;6.90;;;4.47;;
16031;SDS011;8120;48.308;8.914;2023-08-30T08:00:56;6.77;;;4.00;;
16031;SDS011;8120;48.308;8.914;2023-08-30T08:03:26;5.90;;;4.13;;
16031;SDS011;8120;48.308;8.914;2023-08-30T08:05:54;5.00;;;3.73;;
16031;SDS011;8120;48.308;8.914;2023-08-30T08:08:21;4.50;;;3.43;;
16031;SDS011;8120;48.308;8.914;2023-08-30T08:10:49;5.53;;;3.40;;
16031;SDS011;8120;48.308;8.914;2023-08-30T08:13:17;7.03;;;5.37;;
16031;SDS011;8120;48.308;8.914;2023-08-30T08:15:45;6.33;;;5.30;;
16031;SDS011;8120;48.308;8.914;2023-08-30T08:18:13;21.40;;;18.93;;
16031;SDS011;8120;48.308;8.914;2023-08-30T08:20:43;26.80;;;22.80;;
16031;SDS011;8120;48.308;8.914;2023-08-30T08:23:11;6.37;;;3.87;;
16031;SDS011;8120;48.308;8.914;2023-08-30T08:25:38;9.70;;;8.77;;
16031;SDS011;8120;48.308;8.914;2023-08-30T08:28:06;5.83;;;4.90;;
16031;SDS011;8120;48.308;8.914;2023-08-30T08:30:35;6.13;;;3.60;;
16031;SDS011;8120;48.308;8.914;2023-08-30T08:33:03;9.83;;;4.20;;
16031;SDS011;8120;48.308;8.914;2023-08-30T08:35:31;6.37;;;4.00;;
16031;SDS011;8120;48.308;8.914;2023-08-30T08:38:01;5.03;;;3.77;;
16031;SDS011;8120;48.308;8.914;2023-08-30T08:40:29;6.07;;;4.27;;
16031;SDS011;8120;48.308;8.914;2023-08-30T08:43:09;4.30;;;3.67;;
16031;SDS011;8120;48.308;8.914;2023-08-30T08:45:38;6.33;;;4.53;;
16031;SDS011;8120;48.308;8.914;2023-08-30T08:48:06;5.63;;;4.33;;
16031;SDS011;8120;48.308;8.914;2023-08-30T08:50:35;5.70;;;4.70;;
16031;SDS011;8120;48.308;8.914;2023-08-30T08:53:04;5.47;;;4.50;;
16031;SDS011;8120;48.308;8.914;2023-08-30T08:55:33;6.70;;;5.20;;
16031;SDS011;8120;48.308;8.914;2023-08-30T08:58:02;6.30;;;5.50;;
16031;SDS011;8120;48.308;8.914;2023-08-30T09:00:31;6.83;;;4.57;;
16031;SDS011;8120;48.308;8.914;2023-08-30T09:02:59;5.60;;;3.83;;
16031;SDS011;8120;48.308;8.914;2023-08-30T09:05:31;6.60;;;4.40;;
16031;SDS011;8120;48.308;8.914;2023-08-30T09:08:00;6.93;;;4.47;;
16031;SDS011;8120;48.308;8.914;2023-08-30T09:10:31;6.87;;;5.50;;
16031;SDS011;8120;48.308;8.914;2023-08-30T09:12:59;9.37;;;7.27;;
16031;SDS011;8120;48.308;8.914;2023-08-30T09:15:31;8.87;;;6.87;;
16031;SDS011;8120;48.308;8.914;2023-08-30T09:17:59;7.43;;;5.63;;
16031;SDS011;8120;48.308;8.914;2023-08-30T09:20:27;8.30;;;5.93;;
16031;SDS011;8120;48.308;8.914;2023-08-30T09:22:55;6.53;;;5.17;;
16031;SDS011;8120;48.308;8.914;2023-08-30T09:25:24;7.23;;;5.50;;
16031;SDS011;8120;48.308;8.914;2023-08-30T09:27:58;7.07;;;4.90;;
16031;SDS011;8120;48.308;8.914;2023-08-30T09:30:26;8.33;;;5.10;;
16031;SDS011;8120;48.308;8.914;2023-08-30T09:33:00;7.20;;;5.83;;
16031;SDS011;8120;48.308;8.914;2023-08-30T09:35:28;7.37;;;5.67;;
16031;SDS011;8120;48.308;8.914;2023-08-30T09:37:56;7.37;;;5.00;;
16031;SDS011;8120;48.308;8.914;2023-08-30T09:40:24;7.57;;;5.20;;
16031;SDS011;8120;48.308;8.914;2023-08-30T09:42:52;6.03;;;4.90;;
16031;SDS011;8120;48.308;8.914;2023-08-30T09:45:40;6.73;;;4.80;;
16031;SDS011;8120;48.308;8.914;2023-08-30T09:48:08;6.43;;;4.33;;
16031;SDS011;8120;48.308;8.914;2023-08-30T09:50:37;5.27;;;3.77;;
16031;SDS011;8120;48.308;8.914;2023-08-30T09:53:07;3.80;;;2.83;;
16031;SDS011;8120;48.308;8.914;2023-08-30T09:55:38;3.63;;;2.80;;
16031;SDS011;8120;48.308;8.914;2023-08-30T09:58:06;3.53;;;2.40;;
16031;SDS011;8120;48.308;8.914;2023-08-30T10:00:35;4.03;;;2.40;;
16031;SDS011;8120;48.308;8.914;2023-08-30T10:03:05;3.57;;;2.63;;
16031;SDS011;8120;48.308;8.914;2023-08-30T10:05:36;3.37;;;2.43;;
16031;SDS011;8120;48.308;8.914;2023-08-30T10:08:06;2.77;;;2.47;;
16031;SDS011;8120;48.308;8.914;2023-08-30T10:10:35;2.80;;;2.30;;
16031;SDS011;8120;48.308;8.914;2023-08-30T10:13:05;2.43;;;2.23;;
16031;SDS011;8120;48.308;8.914;2023-08-30T10:15:37;2.43;;;2.03;;
16031;SDS011;8120;48.308;8.914;2023-08-30T10:18:11;2.90;;;2.40;;
16031;SDS011;8120;48.308;8.914;2023-08-30T10:20:46;3.87;;;2.70;;
16031;SDS011;8120;48.308;8.914;2023-08-30T10:23:16;4.53;;;2.93;;
16031;SDS011;8120;48.308;8.914;2023-08-30T10:25:45;3.40;;;2.70;;
16031;SDS011;8120;48.308;8.914;2023-08-30T10:28:17;5.60;;;3.40;;
16031;SDS011;8120;48.308;8.914;2023-08-30T10:30:46;3.17;;;2.50;;
16031;SDS011;8120;48.308;8.914;2023-08-30T10:33:16;4.27;;;2.77;;
16031;SDS011;8120;48.308;8.914;2023-08-30T10:35:48;5.50;;;3.57;;
16031;SDS011;8120;48.308;8.914;2023-08-30T10:38:27;5.60;;;3.53;;
16031;SDS011;8120;48.308;8.914;2023-08-30T10:40:55;4.20;;;3.37;;
16031;SDS011;8120;48.308;8.914;2023-08-30T10:43:34;4.47;;;3.43;;
16031;SDS011;8120;48.308;8.914;2023-08-30T10:46:03;5.57;;;3.40;;
16031;SDS011;8120;48.308;8.914;2023-08-30T10:48:35;4.57;;;3.17;;
16031;SDS011;8120;48.308;8.914;2023-08-30T10:51:04;5.37;;;3.43;;
16031;SDS011;8120;48.308;8.914;2023-08-30T10:53:34;3.50;;;2.80;;
16031;SDS011;8120;48.308;8.914;2023-08-30T10:56:02;5.13;;;3.73;;
16031;SDS011;8120;48.308;8.914;2023-08-30T10:58:40;4.07;;;3.10;;
16031;SDS011;8120;48.308;8.914;2023-08-30T11:01:10;4.30;;;3.13;;
16031;SDS011;8120;48.308;8.914;2023-08-30T11:03:41;3.93;;;2.70;;
16031;SDS011;8120;48.308;8.914;2023-08-30T11:06:13;5.80;;;3.53;;
16031;SDS011;8120;48.308;8.914;2023-08-30T11:08:41;6.47;;;3.53;;
16031;SDS011;8120;48.308;8.914;2023-08-30T11:11:09;3.07;;;2.63;;
16031;SDS011;8120;48.308;8.914;2023-08-30T11:13:40;3.23;;;2.40;;
16031;SDS011;8120;48.308;8.914;2023-08-30T11:16:08;6.50;;;4.37;;
16031;SDS011;8120;48.308;8.914;2023-08-30T11:18:38;3.63;;;3.00;;
16031;SDS011;8120;48.308;8.914;2023-08-30T11:21:09;4.50;;;2.90;;
16031;SDS011;8120;48.308;8.914;2023-08-30T11:23:39;3.57;;;3.00;;
16031;SDS011;8120;48.308;8.914;2023-08-30T11:26:07;2.93;;;2.23;;
16031;SDS011;8120;48.308;8.914;2023-08-30T11:28:34;2.90;;;2.40;;
16031;SDS011;8120;48.308;8.914;2023-08-30T11:31:02;3.33;;;2.53;;
16031;SDS011;8120;48.308;8.914;2023-08-30T11:33:30;4.13;;;2.37;;
16031;SDS011;8120;48.308;8.914;2023-08-30T11:35:58;4.67;;;2.60;;
16031;SDS011;8120;48.308;8.914;2023-08-30T11:38:28;3.23;;;2.73;;
16031;SDS011;8120;48.308;8.914;2023-08-30T11:40:57;2.93;;;2.37;;
16031;SDS011;8120;48.308;8.914;2023-08-30T11:43:25;2.27;;;2.07;;
16031;SDS011;8120;48.308;8.914;2023-08-30T11:45:55;2.50;;;2.30;;
16031;SDS011;8120;48.308;8.914;2023-08-30T11:48:24;2.40;;;2.20;;
16031;SDS011;8120;48.308;8.914;2023-08-30T11:50:52;3.13;;;2.27;;
16031;SDS011;8120;48.308;8.914;2023-08-30T11:53:20;4.17;;;3.00;;
16031;SDS011;8120;48.308;8.914;2023-08-30T11:55:49;3.07;;;2.73;;
16031;SDS011;8120;48.308;8.914;2023-08-30T11:58:18;3.37;;;3.00;;
16031;SDS011;8120;48.308;8.914;2023-08-30T12:00:46;6.73;;;3.00;;
16031;SDS011;8120;48.308;8.914;2023-08-30T12:03:17;6.23;;;3.13;;
16031;SDS011;8120;48.308;8.914;2023-08-30T12:05:45;2.87;;;2.47;;
16031;SDS011;8120;48.308;8.914;2023-08-30T12:08:19;2.87;;;2.27;;
16031;SDS011;8120;48.308;8.914;2023-08-30T12:10:47;2.83;;;1.90;;
16031;SDS011;8120;48.308;8.914;2023-08-30T12:13:20;4.50;;;2.03;;
16031;SDS011;8120;48.308;8.914;2023-08-30T12:15:49;2.27;;;2.00;;
16031;SDS011;8120;48.308;8.914;2023-08-30T12:18:20;2.80;;;2.20;;
16031;SDS011;8120;48.308;8.914;2023-08-30T12:20:52;4.80;;;2.93;;
16031;SDS011;8120;48.308;8.914;2023-08-30T12:23:22;3.63;;;2.13;;
16031;SDS011;8120;48.308;8.914;2023-08-30T12:25:58;4.83;;;4.33;;
16031;SDS011;8120;48.308;8.914;2023-08-30T12:28:31;1.80;;;1.70;;
16031;SDS011;8120;48.308;8.914;2023-08-30T12:31:01;1.60;;;1.40;;
16031;SDS011;8120;48.308;8.914;2023-08-30T12:33:30;1.83;;;1.70;;
16031;SDS011;8120;48.308;8.914;2023-08-30T12:35:58;1.80;;;1.63;;
16031;SDS011;8120;48.308;8.914;2023-08-30T12:38:26;2.53;;;2.03;;
16031;SDS011;8120;48.308;8.914;2023-08-30T12:40:54;2.40;;;1.93;;
16031;SDS011;8120;48.308;8.914;2023-08-30T12:43:24;2.80;;;2.10;;
16031;SDS011;8120;48.308;8.914;2023-08-30T12:45:52;3.33;;;2.00;;
16031;SDS011;8120;48.308;8.914;2023-08-30T12:48:22;1.93;;;1.70;;
16031;SDS011;8120;48.308;8.914;2023-08-30T12:50:49;2.20;;;1.77;;
16031;SDS011;8120;48.308;8.914;2023-08-30T12:53:17;2.30;;;1.93;;
16031;SDS011;8120;48.308;8.914;2023-08-30T12:55:45;2.20;;;1.90;;
16031;SDS011;8120;48.308;8.914;2023-08-30T12:58:13;2.93;;;1.80;;
16031;SDS011;8120;48.308;8.914;2023-08-30T13:00:42;2.60;;;1.43;;
16031;SDS011;8120;48.308;8.914;2023-08-30T13:03:10;2.40;;;2.20;;
16031;SDS011;8120;48.308;8.914;2023-08-30T13:05:39;1.93;;;1.60;;
16031;SDS011;8120;48.308;8.914;2023-08-30T13:08:07;2.80;;;1.90;;
16031;SDS011;8120;48.308;8.914;2023-08-30T13:10:35;2.97;;;1.60;;
16031;SDS011;8120;48.308;8.914;2023-08-30T13:13:03;2.30;;;1.90;;
16031;SDS011;8120;48.308;8.914;2023-08-30T13:15:31;2.03;;;1.83;;
16031;SDS011;8120;48.308;8.914;2023-08-30T13:18:00;3.07;;;2.00;;
16031;SDS011;8120;48.308;8.914;2023-08-30T13:20:28;2.50;;;2.10;;
16031;SDS011;8120;48.308;8.914;2023-08-30T13:22:56;3.13;;;2.83;;
16031;SDS011;8120;48.308;8.914;2023-08-30T13:25:24;3.00;;;2.60;;
16031;SDS011;8120;48.308;8.914;2023-08-30T13:27:53;5.10;;;3.00;;
16031;SDS011;8120;48.308;8.914;2023-08-30T13:30:21;3.63;;;2.67;;
16031;SDS011;8120;48.308;8.914;2023-08-30T13:32:48;2.57;;;2.10;;
16031;SDS011;8120;48.308;8.914;2023-08-30T13:35:18;2.77;;;2.00;;
16031;SDS011;8120;48.308;8.914;2023-08-30T13:37:45;4.63;;;3.50;;
16031;SDS011;8120;48.308;8.914;2023-08-30T13:40:14;2.93;;;2.00;;
16031;SDS011;8120;48.308;8.914;2023-08-30T13:42:41;2.83;;;2.30;;
16031;SDS011;8120;48.308;8.914;2023-08-30T13:45:09;2.00;;;1.80;;
16031;SDS011;8120;48.308;8.914;2023-08-30T13:47:39;1.83;;;1.57;;
16031;SDS011;8120;48.308;8.914;2023-08-30T13:50:07;2.27;;;1.97;;
16031;SDS011;8120;48.308;8.914;2023-08-30T13:52:37;3.40;;;2.00;;
16031;SDS011;8120;48.308;8.914;2023-08-30T13:55:05;3.80;;;2.20;;
16031;SDS011;8120;48.308;8.914;2023-08-30T13:57:34;2.83;;;2.23;;
16031;SDS011;8120;48.308;8.914;2023-08-30T14:00:02;2.90;;;2.27;;
16031;SDS011;8120;48.308;8.914;2023-08-30T14:02:34;2.80;;;2.07;;
16031;SDS011;8120;48.308;8.914;2023-08-30T14:05:02;3.03;;;2.20;;
16031;SDS011;8120;48.308;8.914;2023-08-30T14:07:30;2.30;;;2.00;;
16031;SDS011;8120;48.308;8.914;2023-08-30T14:10:00;2.00;;;1.90;;
16031;SDS011;8120;48.308;8.914;2023-08-30T14:12:27;3.60;;;2.23;;
16031;SDS011;8120;48.308;8.914;2023-08-30T14:14:55;3.03;;;2.33;;
16031;SDS011;8120;48.308;8.914;2023-08-30T14:17:23;3.07;;;1.97;;
16031;SDS011;8120;48.308;8.914;2023-08-30T14:19:52;6.27;;;2.50;;
16031;SDS011;8120;48.308;8.914;2023-08-30T14:22:19;2.50;;;2.13;;
16031;SDS011;8120;48.308;8.914;2023-08-30T14:24:47;2.77;;;2.00;;
16031;SDS011;8120;48.308;8.914;2023-08-30T14:27:37;4.73;;;2.10;;
16031;SDS011;8120;48.308;8.914;2023-08-30T14:30:06;2.77;;;2.07;;
16031;SDS011;8120;48.308;8.914;2023-08-30T14:32:34;2.13;;;2.00;;
16031;SDS011;8120;48.308;8.914;2023-08-30T14:35:02;2.17;;;1.80;;
16031;SDS011;8120;48.308;8.914;2023-08-30T14:37:31;3.00;;;2.27;;
16031;SDS011;8120;48.308;8.914;2023-08-30T14:40:00;2.10;;;1.80;;
16031;SDS011;8120;48.308;8.914;2023-08-30T14:42:30;2.37;;;2.17;;
16031;SDS011;8120;48.308;8.914;2023-08-30T14:44:59;2.10;;;2.00;;
16031;SDS011;8120;48.308;8.914;2023-08-30T14:47:29;2.50;;;2.00;;
16031;SDS011;8120;48.308;8.914;2023-08-30T14:49:57;2.47;;;2.20;;
16031;SDS011;8120;48.308;8.914;2023-08-30T14:52:27;2.37;;;2.10;;
16031;SDS011;8120;48.308;8.914;2023-08-30T14:54:55;2.73;;;2.30;;
16031;SDS011;8120;48.308;8.914;2023-08-30T14:57:23;3.43;;;2.03;;
16031;SDS011;8120;48.308;8.914;2023-08-30T14:59:52;2.57;;;1.90;;
16031;SDS011;8120;48.308;8.914;2023-08-30T15:02:22;3.37;;;2.00;;
16031;SDS011;8120;48.308;8.914;2023-08-30T15:04:50;2.43;;;2.23;;
16031;SDS011;8120;48.308;8.914;2023-08-30T15:07:17;1.87;;;1.77;;
16031;SDS011;8120;48.308;8.914;2023-08-30T15:09:45;1.97;;;1.80;;
16031;SDS011;8120;48.308;8.914;2023-08-30T15:12:13;2.90;;;2.33;;